Thunder radar more information blitzortung!


Radar de pluja more information rain snow radar


Visita la nostra xarxa de llocs de meteo:

Template documentation
and downloads

And another site



No particular awareness of the weather is required.    There are no Weather-warnings

Pagina Historial Weather Underground text

Diari Resum Octubre 19, 2017 Unitats:  Tant    Imperial   Mètric
« Previous Dia
SegĂźent Dia »
Diari Setmana Mensual Anual Personalitzada
  Maxima: Minima: Media:
Temperatura: TemperatureC °F /  -17.8 °C 13.5 °F /  -10.3 °C 14.9 °F /  -9.5 °C
Punt de rosada: DewpointC °F /  -17.8 °C 12.7 °F /  -10.7 °C 14.2 °F /  -9.9 °C
Humitat: Humidity % 92 % 95 %
Wind Speed: WindSpeedKMH mph /  0 km/h - 5.4 mph /  8.7 km/h
RĂ fegues de vent: WindSpeedGustKMH mph /  0 km/h - -
Vent:- - ENE
Pression baro: PressurehPa in /  0 hPa 1007.0 in /  34097 hPa -
Precipitacions: 52.3 in /  1328.42 mm    
Historical Graphs
 
 
Dades de taula per Octubre 19, 2017
Temps Temperatura Punt de rosada Pression baro Vent Wind Speed RĂ fegues de vent Humitat Rainfall Rate (Hourly)
TemperatureC °F /  -17.8 °C DewpointC °F /  -17.8 °C PressurehPa in /  0 hPa Calm     Humidity % HourlyPrecipMM in /  0 mm
00:00 14.9 °F /  -9.5 °C 14.1 °F /  -9.9 °C 1010.0 in /  34198.6 hPa Calm   3.2 mph /  5.1 km/h 95 % 0.0 in /  0 mm
00:04 14.6 °F /  -9.7 °C 13.3 °F /  -10.4 °C 1011.7 in /  34256.2 hPa ENE 3.7 mph /  6 km/h 3.7 mph /  6 km/h 92 % 0.0 in /  0 mm
00:09 14.6 °F /  -9.7 °C 13.3 °F /  -10.4 °C 1011.7 in /  34256.2 hPa NNE 5.6 mph /  9 km/h 5.6 mph /  9 km/h 92 % 0.0 in /  0 mm
00:10 14.9 °F /  -9.5 °C 14.1 °F /  -9.9 °C 1010.0 in /  34198.6 hPa East 1.6 mph /  2.6 km/h 1.6 mph /  2.6 km/h 95 % 1.0 in /  25.4 mm
00:14 14.6 °F /  -9.7 °C 13.3 °F /  -10.4 °C 1011.7 in /  34256.2 hPa NNE 7.4 mph /  11.9 km/h 7.4 mph /  11.9 km/h 92 % 0.0 in /  0 mm
00:20 14.9 °F /  -9.5 °C 14.1 °F /  -9.9 °C 1010.0 in /  34198.6 hPa Calm     95 % 1.0 in /  25.4 mm
00:30 15.0 °F /  -9.4 °C 14.2 °F /  -9.9 °C 1010.0 in /  34198.6 hPa NE 8.0 mph /  12.9 km/h 8.0 mph /  12.9 km/h 95 % 0.0 in /  0 mm
00:40 15.0 °F /  -9.4 °C 14.2 °F /  -9.9 °C 1010.0 in /  34198.6 hPa NE 1.6 mph /  2.6 km/h 8.0 mph /  12.9 km/h 95 % 0.0 in /  0 mm
00:50 14.9 °F /  -9.5 °C 14.1 °F /  -9.9 °C 1010.0 in /  34198.6 hPa NE 3.2 mph /  5.1 km/h 6.4 mph /  10.3 km/h 95 % 0.0 in /  0 mm
01:00 14.8 °F /  -9.6 °C 14.0 °F /  -10 °C 1010.0 in /  34198.6 hPa NNE 1.6 mph /  2.6 km/h 3.2 mph /  5.1 km/h 95 % 0.0 in /  0 mm
01:10 14.7 °F /  -9.6 °C 13.9 °F /  -10.1 °C 1010.0 in /  34198.6 hPa Calm     95 % 0.0 in /  0 mm
01:20 14.7 °F /  -9.6 °C 13.9 °F /  -10.1 °C 1010.0 in /  34198.6 hPa Calm   4.8 mph /  7.7 km/h 95 % 0.0 in /  0 mm
01:30 14.7 °F /  -9.6 °C 13.9 °F /  -10.1 °C 1009.0 in /  34164.7 hPa NE 4.8 mph /  7.7 km/h 4.8 mph /  7.7 km/h 95 % 0.0 in /  0 mm
01:40 14.5 °F /  -9.7 °C 13.7 °F /  -10.2 °C 1009.0 in /  34164.7 hPa ENE 1.6 mph /  2.6 km/h 4.8 mph /  7.7 km/h 95 % 1.3 in /  33.02 mm
01:50 14.2 °F /  -9.9 °C 13.2 °F /  -10.4 °C 1010.0 in /  34198.6 hPa NE 3.2 mph /  5.1 km/h 4.8 mph /  7.7 km/h 94 % 1.3 in /  33.02 mm
02:00 14.1 °F /  -9.9 °C 13.2 °F /  -10.4 °C 1010.0 in /  34198.6 hPa NE 4.8 mph /  7.7 km/h 4.8 mph /  7.7 km/h 94 % 4.1 in /  104.14 mm
02:10 13.9 °F /  -10.1 °C 12.9 °F /  -10.6 °C 1010.0 in /  34198.6 hPa Calm   3.2 mph /  5.1 km/h 94 % 5.1 in /  129.54 mm
02:20 13.7 °F /  -10.2 °C 12.8 °F /  -10.7 °C 1010.0 in /  34198.6 hPa Calm     94 % 2.0 in /  50.8 mm
02:30 13.7 °F /  -10.2 °C 12.8 °F /  -10.7 °C 1010.0 in /  34198.6 hPa NE 3.2 mph /  5.1 km/h 4.8 mph /  7.7 km/h 94 % 3.3 in /  83.82 mm
02:40 13.6 °F /  -10.2 °C 12.8 °F /  -10.7 °C 1010.0 in /  34198.6 hPa NE 3.2 mph /  5.1 km/h 4.8 mph /  7.7 km/h 95 % 3.3 in /  83.82 mm
02:50 13.5 °F /  -10.3 °C 12.7 °F /  -10.7 °C 1010.0 in /  34198.6 hPa ENE 1.6 mph /  2.6 km/h 4.8 mph /  7.7 km/h 95 % 3.0 in /  76.2 mm
03:00 13.5 °F /  -10.3 °C 12.7 °F /  -10.7 °C 1009.0 in /  34164.7 hPa Calm     95 % 2.0 in /  50.8 mm
03:10 13.5 °F /  -10.3 °C 12.7 °F /  -10.7 °C 1009.0 in /  34164.7 hPa ENE 4.8 mph /  7.7 km/h 4.8 mph /  7.7 km/h 95 % 0.0 in /  0 mm
03:20 13.5 °F /  -10.3 °C 12.7 °F /  -10.7 °C 1010.0 in /  34198.6 hPa NE 4.8 mph /  7.7 km/h 6.4 mph /  10.3 km/h 95 % 0.0 in /  0 mm
03:30 13.5 °F /  -10.3 °C 12.7 °F /  -10.7 °C 1010.0 in /  34198.6 hPa NNE 1.6 mph /  2.6 km/h 4.8 mph /  7.7 km/h 95 % 0.0 in /  0 mm
03:40 13.6 °F /  -10.2 °C 12.8 °F /  -10.7 °C 1010.0 in /  34198.6 hPa Calm   1.6 mph /  2.6 km/h 95 % 1.0 in /  25.4 mm
03:50 13.6 °F /  -10.2 °C 12.8 °F /  -10.7 °C 1009.0 in /  34164.7 hPa Calm   3.2 mph /  5.1 km/h 95 % 1.0 in /  25.4 mm
04:00 13.6 °F /  -10.2 °C 13.0 °F /  -10.6 °C 1010.7 in /  34222.3 hPa Calm   4.8 mph /  7.7 km/h 96 % 1.0 in /  25.4 mm
04:10 13.8 °F /  -10.1 °C 13.2 °F /  -10.4 °C 1010.7 in /  34222.3 hPa SE 4.8 mph /  7.7 km/h 6.4 mph /  10.3 km/h 96 % 4.3 in /  109.22 mm
04:20 13.8 °F /  -10.1 °C 13.2 °F /  -10.4 °C 1010.7 in /  34222.3 hPa Calm   3.2 mph /  5.1 km/h 96 % 5.3 in /  134.62 mm
04:30 13.8 °F /  -10.1 °C 13.2 °F /  -10.4 °C 1010.7 in /  34222.3 hPa ENE 1.6 mph /  2.6 km/h   96 % 2.0 in /  50.8 mm
04:40 13.8 °F /  -10.1 °C 13.2 °F /  -10.4 °C 1010.7 in /  34222.3 hPa Calm     96 % 2.3 in /  58.42 mm
04:50 13.8 °F /  -10.1 °C 13.2 °F /  -10.4 °C 1011.7 in /  34256.2 hPa Calm   1.6 mph /  2.6 km/h 96 % 2.3 in /  58.42 mm
05:00 13.9 °F /  -10.1 °C 13.3 °F /  -10.4 °C 1011.7 in /  34256.2 hPa SW 3.2 mph /  5.1 km/h 3.2 mph /  5.1 km/h 96 % 2.0 in /  50.8 mm
05:10 13.9 °F /  -10.1 °C 13.3 °F /  -10.4 °C 1011.7 in /  34256.2 hPa Calm   3.2 mph /  5.1 km/h 96 % 2.0 in /  50.8 mm
10:12 14.0 °F /  -10 °C 13.4 °F /  -10.3 °C 1011.7 in /  34256.2 hPa Calm     96 % 11.7 in /  297.18 mm
10:13 14.0 °F /  -10 °C 13.4 °F /  -10.3 °C 1011.7 in /  34256.2 hPa East 5.6 mph /  9 km/h   96 % 11.7 in /  297.18 mm
10:18 13.9 °F /  -10.1 °C 13.3 °F /  -10.4 °C 1011.7 in /  34256.2 hPa East 7.4 mph /  11.9 km/h 7.4 mph /  11.9 km/h 96 % 11.7 in /  297.18 mm
10:23 13.9 °F /  -10.1 °C 13.3 °F /  -10.4 °C 1011.7 in /  34256.2 hPa East 7.4 mph /  11.9 km/h   96 % 11.7 in /  297.18 mm
10:28 14.0 °F /  -10 °C 13.4 °F /  -10.3 °C 1011.7 in /  34256.2 hPa East 1.9 mph /  3.1 km/h 1.9 mph /  3.1 km/h 96 % 10.7 in /  271.78 mm
10:33 14.0 °F /  -10 °C 13.4 °F /  -10.3 °C 1011.7 in /  34256.2 hPa ESE 3.7 mph /  6 km/h 3.7 mph /  6 km/h 96 % 9.7 in /  246.38 mm
10:38 13.9 °F /  -10.1 °C 13.3 °F /  -10.4 °C 1011.7 in /  34256.2 hPa East 3.2 mph /  5.1 km/h 3.2 mph /  5.1 km/h 96 % 9.1 in /  231.14 mm
10:43 14.0 °F /  -10 °C 13.4 °F /  -10.3 °C 1011.7 in /  34256.2 hPa NNE 5.0 mph /  8 km/h 5.0 mph /  8 km/h 96 % 6.9 in /  175.26 mm
10:48 14.0 °F /  -10 °C 13.4 °F /  -10.3 °C 1011.7 in /  34256.2 hPa NNE 5.6 mph /  9 km/h 5.6 mph /  9 km/h 96 % 5.8 in /  147.32 mm
10:53 14.1 °F /  -9.9 °C 13.4 °F /  -10.3 °C 1011.7 in /  34256.2 hPa NNE 5.6 mph /  9 km/h 5.6 mph /  9 km/h 96 % 4.8 in /  121.92 mm
10:58 14.0 °F /  -10 °C 13.4 °F /  -10.3 °C 1011.7 in /  34256.2 hPa NNE 7.6 mph /  12.2 km/h 7.6 mph /  12.2 km/h 96 % 3.3 in /  83.82 mm
11:03 14.1 °F /  -9.9 °C 13.4 °F /  -10.3 °C 1011.7 in /  34256.2 hPa NNE 5.8 mph /  9.3 km/h 5.8 mph /  9.3 km/h 96 % 1.3 in /  33.02 mm
11:08 14.1 °F /  -9.9 °C 13.4 °F /  -10.3 °C 1011.7 in /  34256.2 hPa NNE 4.2 mph /  6.8 km/h 4.2 mph /  6.8 km/h 96 % 1.3 in /  33.02 mm
11:13 14.1 °F /  -9.9 °C 13.4 °F /  -10.3 °C 1011.7 in /  34256.2 hPa NNE 5.6 mph /  9 km/h 5.6 mph /  9 km/h 96 % 1.3 in /  33.02 mm
11:18 14.1 °F /  -9.9 °C 13.4 °F /  -10.3 °C 1011.7 in /  34256.2 hPa NE 6.9 mph /  11.1 km/h 6.9 mph /  11.1 km/h 96 % 2.3 in /  58.42 mm
11:20 14.2 °F /  -9.9 °C 13.6 °F /  -10.2 °C 1011.7 in /  34256.2 hPa ENE 7.4 mph /  11.9 km/h 7.4 mph /  11.9 km/h 96 % 2.3 in /  58.42 mm
11:25 14.2 °F /  -9.9 °C 13.6 °F /  -10.2 °C 1011.7 in /  34256.2 hPa NE 3.9 mph /  6.3 km/h 3.9 mph /  6.3 km/h 96 % 2.3 in /  58.42 mm
11:30 14.2 °F /  -9.9 °C 13.6 °F /  -10.2 °C 1011.7 in /  34256.2 hPa Calm     96 % 2.3 in /  58.42 mm
11:35 14.3 °F /  -9.8 °C 13.7 °F /  -10.2 °C 1011.7 in /  34256.2 hPa NNE 4.2 mph /  6.8 km/h 4.2 mph /  6.8 km/h 96 % 2.3 in /  58.42 mm
11:40 14.3 °F /  -9.8 °C 13.7 °F /  -10.2 °C 1011.7 in /  34256.2 hPa ENE 5.8 mph /  9.3 km/h 5.8 mph /  9.3 km/h 96 % 3.0 in /  76.2 mm
11:45 14.5 °F /  -9.7 °C 13.9 °F /  -10.1 °C 1011.7 in /  34256.2 hPa NE 3.9 mph /  6.3 km/h 3.9 mph /  6.3 km/h 96 % 3.0 in /  76.2 mm
11:50 14.6 °F /  -9.7 °C 13.9 °F /  -10.1 °C 1011.7 in /  34256.2 hPa NE 4.2 mph /  6.8 km/h 4.7 mph /  7.6 km/h 96 % 2.0 in /  50.8 mm
11:55 14.6 °F /  -9.7 °C 13.9 °F /  -10.1 °C 1011.7 in /  34256.2 hPa NNE 5.6 mph /  9 km/h 5.6 mph /  9 km/h 96 % 2.0 in /  50.8 mm
12:00 14.7 °F /  -9.6 °C 14.1 °F /  -9.9 °C 1011.7 in /  34256.2 hPa NNE 5.6 mph /  9 km/h 5.6 mph /  9 km/h 96 % 2.0 in /  50.8 mm
12:05 14.7 °F /  -9.6 °C 14.1 °F /  -9.9 °C 1011.7 in /  34256.2 hPa NNE 6.9 mph /  11.1 km/h 6.9 mph /  11.1 km/h 96 % 2.0 in /  50.8 mm
12:10 14.6 °F /  -9.7 °C 13.9 °F /  -10.1 °C 1011.7 in /  34256.2 hPa North 9.3 mph /  15 km/h 9.3 mph /  15 km/h 96 % 2.0 in /  50.8 mm
12:15 14.6 °F /  -9.7 °C 13.9 °F /  -10.1 °C 1010.7 in /  34222.3 hPa NE 13.0 mph /  20.9 km/h 13.0 mph /  20.9 km/h 96 % 2.0 in /  50.8 mm
12:20 14.4 °F /  -9.8 °C 13.8 °F /  -10.1 °C 1010.7 in /  34222.3 hPa ENE 9.3 mph /  15 km/h 9.3 mph /  15 km/h 96 % 1.0 in /  25.4 mm
12:25 14.3 °F /  -9.8 °C 13.7 °F /  -10.2 °C 1010.7 in /  34222.3 hPa NNE 3.7 mph /  6 km/h 4.7 mph /  7.6 km/h 96 % 1.0 in /  25.4 mm
12:30 14.2 °F /  -9.9 °C 13.4 °F /  -10.3 °C 1010.7 in /  34222.3 hPa ENE 5.6 mph /  9 km/h 5.6 mph /  9 km/h 95 % 1.0 in /  25.4 mm
12:35 14.2 °F /  -9.9 °C 13.4 °F /  -10.3 °C 1010.7 in /  34222.3 hPa North 9.3 mph /  15 km/h 9.3 mph /  15 km/h 95 % 1.0 in /  25.4 mm
12:40 14.1 °F /  -9.9 °C 13.3 °F /  -10.4 °C 1010.7 in /  34222.3 hPa NE 9.3 mph /  15 km/h 9.3 mph /  15 km/h 95 % 0.0 in /  0 mm
12:45 14.1 °F /  -9.9 °C 13.3 °F /  -10.4 °C 1010.7 in /  34222.3 hPa NNE 9.3 mph /  15 km/h 9.3 mph /  15 km/h 95 % 0.0 in /  0 mm
12:50 14.2 °F /  -9.9 °C 13.4 °F /  -10.3 °C 1010.7 in /  34222.3 hPa NNE 5.6 mph /  9 km/h 5.6 mph /  9 km/h 95 % 0.0 in /  0 mm
12:55 14.2 °F /  -9.9 °C 13.4 °F /  -10.3 °C 1010.7 in /  34222.3 hPa NNE 5.8 mph /  9.3 km/h 5.8 mph /  9.3 km/h 95 % 0.0 in /  0 mm
13:00 14.2 °F /  -9.9 °C 13.4 °F /  -10.3 °C 1010.0 in /  34198.6 hPa NNE 5.6 mph /  9 km/h 5.6 mph /  9 km/h 95 % 0.0 in /  0 mm
13:05 14.2 °F /  -9.9 °C 13.4 °F /  -10.3 °C 1010.0 in /  34198.6 hPa NNE 9.3 mph /  15 km/h 9.3 mph /  15 km/h 95 % 0.0 in /  0 mm
13:10 14.1 °F /  -9.9 °C 13.3 °F /  -10.4 °C 1010.0 in /  34198.6 hPa NNE 11.1 mph /  17.9 km/h 11.1 mph /  17.9 km/h 95 % 0.0 in /  0 mm
13:15 14.2 °F /  -9.9 °C 13.4 °F /  -10.3 °C 1010.0 in /  34198.6 hPa NNE 5.6 mph /  9 km/h 5.6 mph /  9 km/h 95 % 1.0 in /  25.4 mm
13:20 14.2 °F /  -9.9 °C 13.4 °F /  -10.3 °C 1010.0 in /  34198.6 hPa NNE 9.3 mph /  15 km/h 9.3 mph /  15 km/h 95 % 1.0 in /  25.4 mm
13:25 14.3 °F /  -9.8 °C 13.5 °F /  -10.3 °C 1010.0 in /  34198.6 hPa NE 7.4 mph /  11.9 km/h 7.4 mph /  11.9 km/h 95 % 1.0 in /  25.4 mm
13:30 14.2 °F /  -9.9 °C 13.4 °F /  -10.3 °C 1009.0 in /  34164.7 hPa NE 3.9 mph /  6.3 km/h 4.2 mph /  6.8 km/h 95 % 1.0 in /  25.4 mm
13:35 14.2 °F /  -9.9 °C 13.4 °F /  -10.3 °C 1009.0 in /  34164.7 hPa NE 6.1 mph /  9.8 km/h 6.1 mph /  9.8 km/h 95 % 1.0 in /  25.4 mm
13:40 14.1 °F /  -9.9 °C 13.3 °F /  -10.4 °C 1009.0 in /  34164.7 hPa ENE 7.4 mph /  11.9 km/h 7.4 mph /  11.9 km/h 95 % 1.0 in /  25.4 mm
13:45 14.1 °F /  -9.9 °C 13.3 °F /  -10.4 °C 1010.0 in /  34198.6 hPa ENE 5.6 mph /  9 km/h 5.6 mph /  9 km/h 95 % 1.0 in /  25.4 mm
13:50 14.1 °F /  -9.9 °C 13.3 °F /  -10.4 °C 1010.0 in /  34198.6 hPa NE 3.7 mph /  6 km/h 3.7 mph /  6 km/h 95 % 1.0 in /  25.4 mm
13:55 14.1 °F /  -9.9 °C 13.3 °F /  -10.4 °C 1010.0 in /  34198.6 hPa NE 12.2 mph /  19.6 km/h 12.2 mph /  19.6 km/h 95 % 1.0 in /  25.4 mm
14:00 14.2 °F /  -9.9 °C 13.4 °F /  -10.3 °C 1010.0 in /  34198.6 hPa North 6.1 mph /  9.8 km/h 6.1 mph /  9.8 km/h 95 % 1.0 in /  25.4 mm
14:05 14.2 °F /  -9.9 °C 13.4 °F /  -10.3 °C 1010.0 in /  34198.6 hPa NE 3.9 mph /  6.3 km/h   95 % 1.0 in /  25.4 mm
14:10 14.3 °F /  -9.8 °C 13.7 °F /  -10.2 °C 1010.0 in /  34198.6 hPa NE 3.7 mph /  6 km/h 3.7 mph /  6 km/h 96 % 1.0 in /  25.4 mm
14:15 14.4 °F /  -9.8 °C 13.8 °F /  -10.1 °C 1009.0 in /  34164.7 hPa North 3.7 mph /  6 km/h   96 % 0.0 in /  0 mm
14:20 14.4 °F /  -9.8 °C 13.8 °F /  -10.1 °C 1009.0 in /  34164.7 hPa NNW 3.7 mph /  6 km/h 3.7 mph /  6 km/h 96 % 0.0 in /  0 mm
14:25 14.5 °F /  -9.7 °C 13.9 °F /  -10.1 °C 1009.0 in /  34164.7 hPa ENE 3.7 mph /  6 km/h 3.7 mph /  6 km/h 96 % 1.0 in /  25.4 mm
14:30 14.6 °F /  -9.7 °C 13.9 °F /  -10.1 °C 1009.0 in /  34164.7 hPa ENE 1.9 mph /  3.1 km/h   96 % 1.0 in /  25.4 mm
14:35 14.6 °F /  -9.7 °C 13.9 °F /  -10.1 °C 1009.0 in /  34164.7 hPa WNW 3.7 mph /  6 km/h 3.7 mph /  6 km/h 96 % 1.0 in /  25.4 mm
14:40 14.7 °F /  -9.6 °C 14.1 °F /  -9.9 °C 1009.0 in /  34164.7 hPa East 5.6 mph /  9 km/h 5.6 mph /  9 km/h 96 % 1.0 in /  25.4 mm
14:45 14.8 °F /  -9.6 °C 14.2 °F /  -9.9 °C 1009.0 in /  34164.7 hPa Calm     96 % 1.0 in /  25.4 mm
14:50 14.9 °F /  -9.5 °C 14.3 °F /  -9.8 °C 1009.0 in /  34164.7 hPa NNW 2.6 mph /  4.2 km/h   96 % 1.0 in /  25.4 mm
14:55 15.0 °F /  -9.4 °C 14.4 °F /  -9.8 °C 1009.0 in /  34164.7 hPa Calm     96 % 1.0 in /  25.4 mm
15:00 15.1 °F /  -9.4 °C 14.4 °F /  -9.8 °C 1008.0 in /  34130.9 hPa Calm     96 % 1.0 in /  25.4 mm
15:05 15.4 °F /  -9.2 °C 14.9 °F /  -9.5 °C 1008.0 in /  34130.9 hPa Calm     97 % 1.0 in /  25.4 mm
15:10 15.6 °F /  -9.1 °C 15.1 °F /  -9.4 °C 1008.0 in /  34130.9 hPa Calm     97 % 1.0 in /  25.4 mm
15:15 15.7 °F /  -9.1 °C 15.2 °F /  -9.3 °C 1009.0 in /  34164.7 hPa NNE 4.2 mph /  6.8 km/h   97 % 1.0 in /  25.4 mm
15:20 15.7 °F /  -9.1 °C 15.2 °F /  -9.3 °C 1009.0 in /  34164.7 hPa NNE 3.7 mph /  6 km/h 3.7 mph /  6 km/h 97 % 2.3 in /  58.42 mm
15:25 15.6 °F /  -9.1 °C 14.9 °F /  -9.5 °C 1009.0 in /  34164.7 hPa NE 7.4 mph /  11.9 km/h 7.4 mph /  11.9 km/h 96 % 1.3 in /  33.02 mm
15:30 15.4 °F /  -9.2 °C 14.8 °F /  -9.6 °C 1008.0 in /  34130.9 hPa NW 3.7 mph /  6 km/h   96 % 1.3 in /  33.02 mm
15:35 15.4 °F /  -9.2 °C 14.8 °F /  -9.6 °C 1008.0 in /  34130.9 hPa Calm     96 % 1.3 in /  33.02 mm
15:40 15.3 °F /  -9.3 °C 14.7 °F /  -9.6 °C 1008.0 in /  34130.9 hPa Calm     96 % 1.3 in /  33.02 mm
15:45 15.5 °F /  -9.2 °C 14.9 °F /  -9.5 °C 1007.0 in /  34097 hPa Calm     96 % 1.3 in /  33.02 mm
15:50 15.7 °F /  -9.1 °C 15.1 °F /  -9.4 °C 1007.0 in /  34097 hPa Calm     96 % 1.3 in /  33.02 mm
15:51 15.7 °F /  -9.1 °C 15.1 °F /  -9.4 °C 1007.0 in /  34097 hPa Calm     96 % 1.3 in /  33.02 mm
15:56 15.8 °F /  -9 °C 15.2 °F /  -9.3 °C 1008.0 in /  34130.9 hPa Calm     96 % 2.3 in /  58.42 mm
16:01 15.9 °F /  -8.9 °C 15.3 °F /  -9.3 °C 1008.0 in /  34130.9 hPa WNW 1.9 mph /  3.1 km/h 1.9 mph /  3.1 km/h 96 % 2.3 in /  58.42 mm
16:06 15.9 °F /  -8.9 °C 15.3 °F /  -9.3 °C 1008.0 in /  34130.9 hPa SW 2.3 mph /  3.7 km/h 2.3 mph /  3.7 km/h 96 % 2.3 in /  58.42 mm
16:11 15.9 °F /  -8.9 °C 15.3 °F /  -9.3 °C 1008.0 in /  34130.9 hPa ESE 2.6 mph /  4.2 km/h   96 % 3.3 in /  83.82 mm
16:16 15.7 °F /  -9.1 °C 15.1 °F /  -9.4 °C 1008.0 in /  34130.9 hPa ESE 1.9 mph /  3.1 km/h 1.9 mph /  3.1 km/h 96 % 3.3 in /  83.82 mm
16:21 15.8 °F /  -9 °C 15.2 °F /  -9.3 °C 1008.0 in /  34130.9 hPa SW 3.7 mph /  6 km/h 3.7 mph /  6 km/h 96 % 2.0 in /  50.8 mm
16:26 15.7 °F /  -9.1 °C 15.1 °F /  -9.4 °C 1008.0 in /  34130.9 hPa Calm     96 % 2.0 in /  50.8 mm
16:31 15.6 °F /  -9.1 °C 14.9 °F /  -9.5 °C 1008.0 in /  34130.9 hPa ESE 3.7 mph /  6 km/h 3.7 mph /  6 km/h 96 % 3.0 in /  76.2 mm
16:36 15.6 °F /  -9.1 °C 14.9 °F /  -9.5 °C 1008.0 in /  34130.9 hPa Calm     96 % 3.0 in /  76.2 mm
16:41 15.6 °F /  -9.1 °C 14.9 °F /  -9.5 °C 1008.0 in /  34130.9 hPa Calm     96 % 3.0 in /  76.2 mm
16:46 15.5 °F /  -9.2 °C 14.9 °F /  -9.5 °C 1008.0 in /  34130.9 hPa NNE 2.3 mph /  3.7 km/h   96 % 3.0 in /  76.2 mm
16:51 15.4 °F /  -9.2 °C 14.8 °F /  -9.6 °C 1008.0 in /  34130.9 hPa Calm     96 % 4.1 in /  104.14 mm
16:56 15.3 °F /  -9.3 °C 14.7 °F /  -9.6 °C 1008.0 in /  34130.9 hPa West 5.6 mph /  9 km/h 5.6 mph /  9 km/h 96 % 4.3 in /  109.22 mm
17:01 15.3 °F /  -9.3 °C 14.7 °F /  -9.6 °C 1008.0 in /  34130.9 hPa NW 2.3 mph /  3.7 km/h   96 % 5.1 in /  129.54 mm
17:06 15.3 °F /  -9.3 °C 14.7 °F /  -9.6 °C 1008.0 in /  34130.9 hPa NNE 3.7 mph /  6 km/h 3.7 mph /  6 km/h 96 % 5.1 in /  129.54 mm
17:11 15.3 °F /  -9.3 °C 14.7 °F /  -9.6 °C 1007.0 in /  34097 hPa NNW 5.6 mph /  9 km/h 5.6 mph /  9 km/h 96 % 4.1 in /  104.14 mm
17:16 15.3 °F /  -9.3 °C 14.7 °F /  -9.6 °C 1007.0 in /  34097 hPa West 1.9 mph /  3.1 km/h   96 % 4.1 in /  104.14 mm
17:21 15.2 °F /  -9.3 °C 14.6 °F /  -9.7 °C 1007.0 in /  34097 hPa WNW 3.7 mph /  6 km/h 3.7 mph /  6 km/h 96 % 5.3 in /  134.62 mm
17:26 15.3 °F /  -9.3 °C 14.7 °F /  -9.6 °C 1007.0 in /  34097 hPa NE 3.7 mph /  6 km/h 3.7 mph /  6 km/h 96 % 6.3 in /  160.02 mm
17:31 15.3 °F /  -9.3 °C 14.7 °F /  -9.6 °C 1007.0 in /  34097 hPa ESE 2.6 mph /  4.2 km/h 2.6 mph /  4.2 km/h 96 % 5.3 in /  134.62 mm
17:36 15.3 °F /  -9.3 °C 14.7 °F /  -9.6 °C 1007.0 in /  34097 hPa NNW 3.7 mph /  6 km/h 3.7 mph /  6 km/h 96 % 6.3 in /  160.02 mm
17:41 15.3 °F /  -9.3 °C 14.7 °F /  -9.6 °C 1007.0 in /  34097 hPa Calm     96 % 7.4 in /  187.96 mm
17:46 15.3 °F /  -9.3 °C 14.7 °F /  -9.6 °C 1007.0 in /  34097 hPa ENE 7.4 mph /  11.9 km/h 7.4 mph /  11.9 km/h 96 % 7.4 in /  187.96 mm
17:51 15.3 °F /  -9.3 °C 14.7 °F /  -9.6 °C 1007.0 in /  34097 hPa ENE 9.3 mph /  15 km/h 9.3 mph /  15 km/h 96 % 8.4 in /  213.36 mm
17:56 15.3 °F /  -9.3 °C 14.7 °F /  -9.6 °C 1007.0 in /  34097 hPa NNE 9.3 mph /  15 km/h 9.3 mph /  15 km/h 96 % 8.4 in /  213.36 mm
18:01 15.3 °F /  -9.3 °C 14.7 °F /  -9.6 °C 1007.0 in /  34097 hPa NNE 9.3 mph /  15 km/h 9.3 mph /  15 km/h 96 % 7.6 in /  193.04 mm
18:06 15.3 °F /  -9.3 °C 14.7 °F /  -9.6 °C 1007.0 in /  34097 hPa NNE 7.6 mph /  12.2 km/h 7.6 mph /  12.2 km/h 96 % 8.6 in /  218.44 mm
18:11 15.2 °F /  -9.3 °C 14.6 °F /  -9.7 °C 1007.0 in /  34097 hPa NE 13.0 mph /  20.9 km/h 13.0 mph /  20.9 km/h 96 % 8.6 in /  218.44 mm
18:16 15.2 °F /  -9.3 °C 14.6 °F /  -9.7 °C 1007.0 in /  34097 hPa NNE 5.6 mph /  9 km/h 5.6 mph /  9 km/h 96 % 8.6 in /  218.44 mm
18:21 15.1 °F /  -9.4 °C 14.4 °F /  -9.8 °C 1007.0 in /  34097 hPa NNE 16.7 mph /  26.9 km/h 16.7 mph /  26.9 km/h 96 % 7.4 in /  187.96 mm
18:26 15.1 °F /  -9.4 °C 14.4 °F /  -9.8 °C 1007.0 in /  34097 hPa ENE 9.7 mph /  15.6 km/h 9.7 mph /  15.6 km/h 96 % 6.3 in /  160.02 mm
18:31 15.0 °F /  -9.4 °C 14.4 °F /  -9.8 °C 1007.0 in /  34097 hPa NNW 7.9 mph /  12.7 km/h 7.9 mph /  12.7 km/h 96 % 6.3 in /  160.02 mm
18:36 15.0 °F /  -9.4 °C 14.4 °F /  -9.8 °C 1007.0 in /  34097 hPa NNE 11.1 mph /  17.9 km/h 11.1 mph /  17.9 km/h 96 % 5.3 in /  134.62 mm
18:41 15.0 °F /  -9.4 °C 14.4 °F /  -9.8 °C 1007.0 in /  34097 hPa North 12.6 mph /  20.3 km/h 12.6 mph /  20.3 km/h 96 % 5.3 in /  134.62 mm
18:46 15.0 °F /  -9.4 °C 14.4 °F /  -9.8 °C 1007.0 in /  34097 hPa NNE 9.7 mph /  15.6 km/h 9.7 mph /  15.6 km/h 96 % 5.3 in /  134.62 mm
18:51 15.0 °F /  -9.4 °C 14.4 °F /  -9.8 °C 1007.0 in /  34097 hPa NE 9.3 mph /  15 km/h 9.3 mph /  15 km/h 96 % 3.3 in /  83.82 mm
18:56 15.0 °F /  -9.4 °C 14.4 °F /  -9.8 °C 1007.0 in /  34097 hPa East 9.3 mph /  15 km/h 9.3 mph /  15 km/h 96 % 2.0 in /  50.8 mm
19:01 15.0 °F /  -9.4 °C 14.4 °F /  -9.8 °C 1007.0 in /  34097 hPa NNE 11.1 mph /  17.9 km/h 11.1 mph /  17.9 km/h 96 % 2.0 in /  50.8 mm
19:06 15.0 °F /  -9.4 °C 14.4 °F /  -9.8 °C 1007.0 in /  34097 hPa NNE 11.1 mph /  17.9 km/h 11.1 mph /  17.9 km/h 96 % 1.0 in /  25.4 mm
19:11 15.0 °F /  -9.4 °C 14.4 °F /  -9.8 °C 1007.0 in /  34097 hPa NE 9.3 mph /  15 km/h 9.3 mph /  15 km/h 96 % 1.0 in /  25.4 mm
19:16 15.1 °F /  -9.4 °C 14.4 °F /  -9.8 °C 1007.0 in /  34097 hPa NE 14.8 mph /  23.8 km/h 14.8 mph /  23.8 km/h 96 % 1.0 in /  25.4 mm
19:20 15.4 °F /  -9.2 °C 14.6 °F /  -9.7 °C 1011.7 in /  34256.2 hPa Calm     95 % 0.0 in /  0 mm
19:21 15.1 °F /  -9.4 °C 14.4 °F /  -9.8 °C 1007.0 in /  34097 hPa NNE 22.2 mph /  35.7 km/h 22.2 mph /  35.7 km/h 96 % 1.0 in /  25.4 mm
19:26 15.1 °F /  -9.4 °C 14.4 °F /  -9.8 °C 1007.0 in /  34097 hPa NNE 16.7 mph /  26.9 km/h 16.7 mph /  26.9 km/h 96 % 1.0 in /  25.4 mm
19:30 15.4 °F /  -9.2 °C 14.8 °F /  -9.6 °C 1011.7 in /  34256.2 hPa Calm     96 % 0.0 in /  0 mm
19:31 15.1 °F /  -9.4 °C 14.4 °F /  -9.8 °C 1007.0 in /  34097 hPa NNE 14.8 mph /  23.8 km/h 14.8 mph /  23.8 km/h 96 % 1.0 in /  25.4 mm
19:36 15.2 °F /  -9.3 °C 14.6 °F /  -9.7 °C 1007.0 in /  34097 hPa NNW 11.1 mph /  17.9 km/h 11.1 mph /  17.9 km/h 96 % 1.0 in /  25.4 mm
19:40 15.4 °F /  -9.2 °C 14.8 °F /  -9.6 °C 1011.7 in /  34256.2 hPa Calm     96 % 0.0 in /  0 mm
19:41 15.2 °F /  -9.3 °C 14.6 °F /  -9.7 °C 1008.0 in /  34130.9 hPa NNE 17.2 mph /  27.7 km/h 17.2 mph /  27.7 km/h 96 % 0.0 in /  0 mm
19:46 15.3 °F /  -9.3 °C 14.7 °F /  -9.6 °C 1008.0 in /  34130.9 hPa East 16.7 mph /  26.9 km/h 16.7 mph /  26.9 km/h 96 % 0.0 in /  0 mm
19:50 15.4 °F /  -9.2 °C 14.6 °F /  -9.7 °C 1011.7 in /  34256.2 hPa Calm     95 % 0.0 in /  0 mm
19:51 15.3 °F /  -9.3 °C 14.7 °F /  -9.6 °C 1008.0 in /  34130.9 hPa NNW 11.1 mph /  17.9 km/h 11.1 mph /  17.9 km/h 96 % 0.0 in /  0 mm
19:56 15.3 °F /  -9.3 °C 14.7 °F /  -9.6 °C 1007.0 in /  34097 hPa ENE 11.1 mph /  17.9 km/h 11.1 mph /  17.9 km/h 96 % 0.0 in /  0 mm
20:00 15.4 °F /  -9.2 °C 14.6 °F /  -9.7 °C 1011.7 in /  34256.2 hPa Calm     95 % 0.0 in /  0 mm
20:01 15.3 °F /  -9.3 °C 14.7 °F /  -9.6 °C 1007.0 in /  34097 hPa NE 16.7 mph /  26.9 km/h 16.7 mph /  26.9 km/h 96 % 0.0 in /  0 mm
20:06 15.5 °F /  -9.2 °C 14.9 °F /  -9.5 °C 1007.0 in /  34097 hPa NNE 20.4 mph /  32.8 km/h 20.4 mph /  32.8 km/h 96 % 0.0 in /  0 mm
20:10 15.3 °F /  -9.3 °C 14.5 °F /  -9.7 °C 1011.7 in /  34256.2 hPa Calm     95 % 0.0 in /  0 mm
20:11 15.7 °F /  -9.1 °C 14.9 °F /  -9.5 °C 1008.0 in /  34130.9 hPa NNE 13.0 mph /  20.9 km/h 13.0 mph /  20.9 km/h 95 % 0.0 in /  0 mm
20:16 15.7 °F /  -9.1 °C 14.9 °F /  -9.5 °C 1008.0 in /  34130.9 hPa East 13.0 mph /  20.9 km/h 13.0 mph /  20.9 km/h 95 % 0.0 in /  0 mm
20:20 15.4 °F /  -9.2 °C 14.6 °F /  -9.7 °C 1011.7 in /  34256.2 hPa Calm     95 % 0.0 in /  0 mm
20:21 15.8 °F /  -9 °C 15.0 °F /  -9.4 °C 1008.0 in /  34130.9 hPa NNW 11.4 mph /  18.3 km/h 11.4 mph /  18.3 km/h 95 % 1.0 in /  25.4 mm
20:26 15.8 °F /  -9 °C 15.0 °F /  -9.4 °C 1008.0 in /  34130.9 hPa NNE 18.5 mph /  29.8 km/h 18.5 mph /  29.8 km/h 95 % 1.0 in /  25.4 mm
20:30 15.3 °F /  -9.3 °C 14.5 °F /  -9.7 °C 1012.8 in /  34293.4 hPa Calm     95 % 0.0 in /  0 mm
20:31 15.8 °F /  -9 °C 15.0 °F /  -9.4 °C 1008.0 in /  34130.9 hPa NNE 9.3 mph /  15 km/h 9.3 mph /  15 km/h 95 % 1.0 in /  25.4 mm
20:36 15.7 °F /  -9.1 °C 14.9 °F /  -9.5 °C 1008.0 in /  34130.9 hPa ENE 14.0 mph /  22.5 km/h 14.0 mph /  22.5 km/h 95 % 1.0 in /  25.4 mm
20:40 15.2 °F /  -9.3 °C 14.4 °F /  -9.8 °C 1012.8 in /  34293.4 hPa Calm     95 % 0.0 in /  0 mm
20:41 15.8 °F /  -9 °C 15.0 °F /  -9.4 °C 1009.0 in /  34164.7 hPa ENE 11.1 mph /  17.9 km/h 11.1 mph /  17.9 km/h 95 % 1.0 in /  25.4 mm
20:46 15.8 °F /  -9 °C 15.0 °F /  -9.4 °C 1009.0 in /  34164.7 hPa ENE 14.8 mph /  23.8 km/h 14.8 mph /  23.8 km/h 95 % 1.0 in /  25.4 mm
20:50 15.2 °F /  -9.3 °C 14.4 °F /  -9.8 °C 1012.8 in /  34293.4 hPa Calm     95 % 0.0 in /  0 mm
20:51 15.8 °F /  -9 °C 15.0 °F /  -9.4 °C 1009.0 in /  34164.7 hPa ENE 9.5 mph /  15.3 km/h 9.5 mph /  15.3 km/h 95 % 1.0 in /  25.4 mm
20:56 15.8 °F /  -9 °C 15.0 °F /  -9.4 °C 1010.0 in /  34198.6 hPa ENE 14.8 mph /  23.8 km/h 14.8 mph /  23.8 km/h 95 % 1.0 in /  25.4 mm
21:00 15.1 °F /  -9.4 °C 14.3 °F /  -9.8 °C 1012.8 in /  34293.4 hPa Calm     95 % 0.0 in /  0 mm
21:01 15.8 °F /  -9 °C 15.0 °F /  -9.4 °C 1010.0 in /  34198.6 hPa NE 12.6 mph /  20.3 km/h 12.6 mph /  20.3 km/h 95 % 1.0 in /  25.4 mm
21:06 15.9 °F /  -8.9 °C 15.1 °F /  -9.4 °C 1010.0 in /  34198.6 hPa North 10.3 mph /  16.6 km/h 10.3 mph /  16.6 km/h 95 % 1.0 in /  25.4 mm
21:10 15.1 °F /  -9.4 °C 14.4 °F /  -9.8 °C 1012.8 in /  34293.4 hPa Calm     96 % 0.0 in /  0 mm
21:11 15.9 °F /  -8.9 °C 15.1 °F /  -9.4 °C 1010.0 in /  34198.6 hPa NNE 13.0 mph /  20.9 km/h 13.0 mph /  20.9 km/h 95 % 1.0 in /  25.4 mm
21:16 15.9 °F /  -8.9 °C 15.1 °F /  -9.4 °C 1010.0 in /  34198.6 hPa NE 11.1 mph /  17.9 km/h 11.1 mph /  17.9 km/h 95 % 1.0 in /  25.4 mm
21:20 15.1 °F /  -9.4 °C 14.4 °F /  -9.8 °C 1012.8 in /  34293.4 hPa Calm     96 % 0.0 in /  0 mm
21:21 15.9 °F /  -8.9 °C 15.1 °F /  -9.4 °C 1010.0 in /  34198.6 hPa NNE 9.7 mph /  15.6 km/h 9.7 mph /  15.6 km/h 95 % 0.0 in /  0 mm
21:26 15.9 °F /  -8.9 °C 15.1 °F /  -9.4 °C 1010.0 in /  34198.6 hPa NNE 13.0 mph /  20.9 km/h 13.0 mph /  20.9 km/h 95 % 0.0 in /  0 mm
21:30 15.1 °F /  -9.4 °C 14.4 °F /  -9.8 °C 1013.8 in /  34327.3 hPa Calm     96 % 0.0 in /  0 mm
21:31 16.0 °F /  -8.9 °C 15.2 °F /  -9.3 °C 1010.0 in /  34198.6 hPa NNE 11.1 mph /  17.9 km/h 11.1 mph /  17.9 km/h 95 % 0.0 in /  0 mm
21:36 16.0 °F /  -8.9 °C 15.2 °F /  -9.3 °C 1010.0 in /  34198.6 hPa NE 13.7 mph /  22 km/h 13.7 mph /  22 km/h 95 % 0.0 in /  0 mm
21:40 15.0 °F /  -9.4 °C 14.4 °F /  -9.8 °C 1013.8 in /  34327.3 hPa Calm     96 % 0.0 in /  0 mm
21:41 16.0 °F /  -8.9 °C 15.2 °F /  -9.3 °C 1010.0 in /  34198.6 hPa NNE 9.3 mph /  15 km/h 9.3 mph /  15 km/h 95 % 0.0 in /  0 mm
21:46 16.0 °F /  -8.9 °C 15.2 °F /  -9.3 °C 1010.0 in /  34198.6 hPa NNE 9.3 mph /  15 km/h 9.3 mph /  15 km/h 95 % 0.0 in /  0 mm
21:50 15.0 °F /  -9.4 °C 14.4 °F /  -9.8 °C 1012.8 in /  34293.4 hPa Calm     96 % 0.0 in /  0 mm
21:51 16.0 °F /  -8.9 °C 15.2 °F /  -9.3 °C 1010.0 in /  34198.6 hPa ENE 9.5 mph /  15.3 km/h 9.5 mph /  15.3 km/h 95 % 0.0 in /  0 mm
21:56 15.9 °F /  -8.9 °C 15.1 °F /  -9.4 °C 1010.0 in /  34198.6 hPa NNE 9.3 mph /  15 km/h 9.3 mph /  15 km/h 95 % 0.0 in /  0 mm
22:00 14.9 °F /  -9.5 °C 14.1 °F /  -9.9 °C 1012.8 in /  34293.4 hPa Calm     95 % 0.0 in /  0 mm
22:01 15.9 °F /  -8.9 °C 15.1 °F /  -9.4 °C 1010.0 in /  34198.6 hPa NNE 11.9 mph /  19.2 km/h 11.9 mph /  19.2 km/h 95 % 0.0 in /  0 mm
22:06 15.8 °F /  -9 °C 15.0 °F /  -9.4 °C 1010.0 in /  34198.6 hPa NE 7.4 mph /  11.9 km/h 7.4 mph /  11.9 km/h 95 % 0.0 in /  0 mm
22:10 14.8 °F /  -9.6 °C 14.2 °F /  -9.9 °C 1012.8 in /  34293.4 hPa Calm     96 % 0.0 in /  0 mm
22:11 15.8 °F /  -9 °C 15.0 °F /  -9.4 °C 1010.0 in /  34198.6 hPa NNE 7.4 mph /  11.9 km/h 7.4 mph /  11.9 km/h 95 % 0.0 in /  0 mm
22:12 15.8 °F /  -9 °C 15.0 °F /  -9.4 °C 1010.0 in /  34198.6 hPa NE 4.2 mph /  6.8 km/h 4.2 mph /  6.8 km/h 95 % 0.0 in /  0 mm
22:17 15.8 °F /  -9 °C 15.0 °F /  -9.4 °C 1010.0 in /  34198.6 hPa ENE 9.3 mph /  15 km/h 9.3 mph /  15 km/h 95 % 0.0 in /  0 mm
22:20 14.7 °F /  -9.6 °C 13.9 °F /  -10.1 °C 1013.8 in /  34327.3 hPa NNE 1.6 mph /  2.6 km/h 3.2 mph /  5.1 km/h 95 % 0.0 in /  0 mm
22:22 15.7 °F /  -9.1 °C 14.9 °F /  -9.5 °C 1010.0 in /  34198.6 hPa NNE 9.3 mph /  15 km/h 9.3 mph /  15 km/h 95 % 0.0 in /  0 mm
22:27 15.7 °F /  -9.1 °C 14.9 °F /  -9.5 °C 1010.0 in /  34198.6 hPa North 9.3 mph /  15 km/h 9.3 mph /  15 km/h 95 % 0.0 in /  0 mm
22:30 14.8 °F /  -9.6 °C 14.2 °F /  -9.9 °C 1013.8 in /  34327.3 hPa Calm     96 % 0.0 in /  0 mm
22:32 15.7 °F /  -9.1 °C 14.9 °F /  -9.5 °C 1010.0 in /  34198.6 hPa NNE 9.3 mph /  15 km/h 9.3 mph /  15 km/h 95 % 0.0 in /  0 mm
22:37 15.7 °F /  -9.1 °C 14.9 °F /  -9.5 °C 1010.0 in /  34198.6 hPa NNE 9.3 mph /  15 km/h 9.3 mph /  15 km/h 95 % 0.0 in /  0 mm
22:40 14.8 °F /  -9.6 °C 14.2 °F /  -9.9 °C 1013.8 in /  34327.3 hPa Calm     96 % 0.0 in /  0 mm
22:42 15.8 °F /  -9 °C 15.0 °F /  -9.4 °C 1010.7 in /  34222.3 hPa NNE 7.4 mph /  11.9 km/h 7.4 mph /  11.9 km/h 95 % 0.0 in /  0 mm
22:47 15.8 °F /  -9 °C 15.0 °F /  -9.4 °C 1010.7 in /  34222.3 hPa ENE 10.0 mph /  16.1 km/h 10.0 mph /  16.1 km/h 95 % 0.0 in /  0 mm
22:50 14.8 °F /  -9.6 °C 14.2 °F /  -9.9 °C 1013.8 in /  34327.3 hPa Calm     96 % 0.0 in /  0 mm
22:52 15.8 °F /  -9 °C 15.0 °F /  -9.4 °C 1010.7 in /  34222.3 hPa NNE 9.3 mph /  15 km/h 9.3 mph /  15 km/h 95 % 0.0 in /  0 mm
22:57 15.8 °F /  -9 °C 15.0 °F /  -9.4 °C 1010.7 in /  34222.3 hPa NNE 7.4 mph /  11.9 km/h 7.4 mph /  11.9 km/h 95 % 0.0 in /  0 mm
23:00 14.9 °F /  -9.5 °C 14.3 °F /  -9.8 °C 1013.8 in /  34327.3 hPa Calm     96 % 0.0 in /  0 mm
23:02 15.7 °F /  -9.1 °C 14.9 °F /  -9.5 °C 1010.7 in /  34222.3 hPa NE 5.6 mph /  9 km/h 5.6 mph /  9 km/h 95 % 0.0 in /  0 mm
23:07 15.6 °F /  -9.1 °C 14.8 °F /  -9.6 °C 1010.7 in /  34222.3 hPa ENE 5.6 mph /  9 km/h 5.6 mph /  9 km/h 95 % 0.0 in /  0 mm
23:10 14.7 °F /  -9.6 °C 14.1 °F /  -9.9 °C 1013.8 in /  34327.3 hPa Calm     96 % 0.0 in /  0 mm
23:12 15.6 °F /  -9.1 °C 14.8 °F /  -9.6 °C 1011.7 in /  34256.2 hPa NNE 3.7 mph /  6 km/h 3.7 mph /  6 km/h 95 % 0.0 in /  0 mm
23:17 15.5 °F /  -9.2 °C 14.7 °F /  -9.6 °C 1011.7 in /  34256.2 hPa NNE 1.9 mph /  3.1 km/h 1.9 mph /  3.1 km/h 95 % 0.0 in /  0 mm
23:20 14.6 °F /  -9.7 °C 13.9 °F /  -10.1 °C 1013.8 in /  34327.3 hPa WNW 3.2 mph /  5.1 km/h 3.2 mph /  5.1 km/h 96 % 0.0 in /  0 mm
23:22 15.5 °F /  -9.2 °C 14.7 °F /  -9.6 °C 1011.7 in /  34256.2 hPa NNE 6.1 mph /  9.8 km/h 6.1 mph /  9.8 km/h 95 % 0.0 in /  0 mm
23:27 15.5 °F /  -9.2 °C 14.7 °F /  -9.6 °C 1010.7 in /  34222.3 hPa NNE 7.4 mph /  11.9 km/h 7.4 mph /  11.9 km/h 95 % 0.0 in /  0 mm
23:30 14.6 °F /  -9.7 °C 13.9 °F /  -10.1 °C 1013.8 in /  34327.3 hPa Calm     96 % 0.0 in /  0 mm
23:32 15.4 °F /  -9.2 °C 14.6 °F /  -9.7 °C 1010.7 in /  34222.3 hPa NE 5.6 mph /  9 km/h 5.6 mph /  9 km/h 95 % 0.0 in /  0 mm
23:37 15.4 °F /  -9.2 °C 14.6 °F /  -9.7 °C 1010.7 in /  34222.3 hPa NNE 3.7 mph /  6 km/h 3.7 mph /  6 km/h 95 % 0.0 in /  0 mm
23:40 14.6 °F /  -9.7 °C 13.9 °F /  -10.1 °C 1013.8 in /  34327.3 hPa Calm     96 % 0.0 in /  0 mm
23:42 15.4 °F /  -9.2 °C 14.6 °F /  -9.7 °C 1010.7 in /  34222.3 hPa ENE 5.6 mph /  9 km/h   95 % 0.0 in /  0 mm
23:47 15.4 °F /  -9.2 °C 14.6 °F /  -9.7 °C 1010.7 in /  34222.3 hPa NE 3.7 mph /  6 km/h 3.7 mph /  6 km/h 95 % 0.0 in /  0 mm
23:50 14.6 °F /  -9.7 °C 13.9 °F /  -10.1 °C 1013.8 in /  34327.3 hPa Calm     96 % 0.0 in /  0 mm
23:52 15.4 °F /  -9.2 °C 14.6 °F /  -9.7 °C 1010.7 in /  34222.3 hPa Calm     95 % 0.0 in /  0 mm
23:57 15.4 °F /  -9.2 °C 14.6 °F /  -9.7 °C 1012.8 in /  34293.4 hPa Calm     95 % 0.0 in /  0 mm
Meteo Sesrovires
Elogis d' Weather Underground - 4 mb

Guio original per  Jim McMurry - jmcmurry@mwt.net Adaptat per a la plantilla per  Wim van der Kuil - Leuven-Template.eu

Trobareu la nostra informacio del temps tambe a:

Weather Underground

AWEKAS